Time;durP1;ratioP1;P1;durP2;ratioP2;P2;SDS_P1;SDS_P2;PMS_P1;PMS_P2;Temp;Humidity;BMP_temperature;BMP_pressure;BME280_temperature;BME280_humidity;BME280_pressure;Samples;Min_cycle;Max_cycle;Signal;HPM_P1;HPM_P2
2022/12/06 00:01:06;;;;;;;3.95;3.35;;;19.80;42.00;;;;;;5092406;28;20493;-9
2022/12/06 00:03:33;;;;;;;3.35;2.75;;;19.80;42.00;;;;;;5092375;28;20177;-9
2022/12/06 00:06:04;;;;;;;4.88;3.33;;;19.80;42.00;;;;;;5092327;28;20048;-9
2022/12/06 00:08:30;;;;;;;3.67;2.92;;;19.80;42.00;;;;;;5092359;28;20055;-9
2022/12/06 00:11:28;;;;;;;4.57;3.20;;;19.80;42.00;;;;;;5090855;28;20485;-9
2022/12/06 00:13:56;;;;;;;3.10;2.80;;;19.80;42.00;;;;;;5087182;28;20068;-9
2022/12/06 00:16:23;;;;;;;3.28;2.97;;;19.90;42.00;;;;;;5092183;28;20063;-9
2022/12/06 00:18:49;;;;;;;3.85;2.85;;;19.80;42.00;;;;;;5093990;28;20135;-9
2022/12/06 00:21:20;;;;;;;3.30;2.90;;;19.80;42.00;;;;;;5095765;28;20109;-9
2022/12/06 00:23:49;;;;;;;3.67;3.03;;;19.90;42.00;;;;;;5095782;28;20076;-9
2022/12/06 00:26:15;;;;;;;3.70;2.67;;;19.90;42.00;;;;;;5095667;28;20386;-9
2022/12/06 00:28:41;;;;;;;3.55;2.80;;;19.90;41.90;;;;;;5095862;28;20109;-9
2022/12/06 00:31:09;;;;;;;3.20;2.90;;;19.90;41.90;;;;;;5095621;28;20048;-9
2022/12/06 00:33:36;;;;;;;3.85;2.90;;;19.90;41.90;;;;;;5095598;28;20493;-9
2022/12/06 00:36:05;;;;;;;3.10;2.60;;;19.90;41.90;;;;;;5095589;28;20060;-9
2022/12/06 00:38:31;;;;;;;3.05;2.75;;;19.90;41.90;;;;;;5095312;28;20044;-9
2022/12/06 00:41:05;;;;;;;4.55;3.40;;;19.90;42.00;;;;;;5095471;28;20052;-9
2022/12/06 00:43:32;;;;;;;4.00;3.20;;;19.90;42.00;;;;;;5095519;28;20060;-9
2022/12/06 00:45:58;;;;;;;3.45;3.10;;;19.90;42.00;;;;;;5095684;28;20048;-9
2022/12/06 00:48:23;;;;;;;3.42;3.13;;;19.90;41.90;;;;;;5094964;28;20059;-9
2022/12/06 00:50:49;;;;;;;3.83;3.42;;;19.90;41.90;;;;;;5093271;28;20052;-9
2022/12/06 00:53:15;;;;;;;4.13;3.20;;;19.90;41.90;;;;;;5095330;28;20059;-9
2022/12/06 00:55:42;;;;;;;3.17;2.80;;;19.90;41.90;;;;;;5095527;28;20060;-9
2022/12/06 00:58:09;;;;;;;3.88;2.97;;;19.90;41.90;;;;;;5094850;28;20056;-9
2022/12/06 01:00:35;;;;;;;3.30;3.00;;;19.90;41.90;;;;;;5095053;28;20493;-9
2022/12/06 01:03:00;;;;;;;3.33;2.80;;;19.90;41.90;;;;;;5095085;28;20075;-9
2022/12/06 01:05:27;;;;;;;3.78;2.83;;;19.90;41.90;;;;;;5095143;28;20485;-9
2022/12/06 01:07:52;;;;;;;3.88;3.08;;;19.90;42.00;;;;;;5095118;28;20549;-9
2022/12/06 01:10:18;;;;;;;3.83;3.17;;;19.90;41.90;;;;;;5094989;28;20079;-9
2022/12/06 01:12:44;;;;;;;4.20;3.10;;;19.90;41.90;;;;;;5094974;28;20044;-9
2022/12/06 01:15:12;;;;;;;4.50;3.40;;;19.90;41.90;;;;;;5095163;28;20105;-9
2022/12/06 01:17:39;;;;;;;4.72;3.20;;;19.90;42.50;;;;;;5094790;28;20109;-9
2022/12/06 01:20:06;;;;;;;4.43;3.35;;;19.90;41.90;;;;;;5094765;28;20063;-9
2022/12/06 01:22:32;;;;;;;3.63;2.88;;;19.90;41.90;;;;;;5094597;28;20113;-9
2022/12/06 01:24:58;;;;;;;3.60;2.90;;;19.90;41.90;;;;;;5094677;28;20082;-9
2022/12/06 01:27:23;;;;;;;3.05;2.65;;;19.90;42.00;;;;;;5094901;28;20087;-9
2022/12/06 01:29:49;;;;;;;3.30;2.83;;;19.90;42.00;;;;;;5094337;28;20079;-9
2022/12/06 01:32:14;;;;;;;3.78;3.33;;;19.90;42.00;;;;;;5094468;28;20052;-9
2022/12/06 01:34:40;;;;;;;3.85;2.80;;;19.90;41.90;;;;;;5094586;28;20417;-9
2022/12/06 01:37:06;;;;;;;3.97;3.45;;;19.90;41.90;;;;;;5094502;28;20489;-9
2022/12/06 01:39:31;;;;;;;3.45;2.78;;;19.90;41.90;;;;;;5094883;28;20052;-9
2022/12/06 01:41:57;;;;;;;3.42;2.83;;;19.90;41.90;;;;;;5094419;28;20044;-9
2022/12/06 01:44:44;;;;;;;3.05;2.70;;;19.90;41.90;;;;;;5094483;28;20051;-9
2022/12/06 01:47:22;;;;;;;2.58;2.35;;;19.90;41.90;;;;;;5094353;28;20184;-9
2022/12/06 01:50:06;;;;;;;3.30;2.80;;;19.90;41.90;;;;;;5094053;28;20412;-9
2022/12/06 01:52:38;;;;;;;3.10;2.70;;;19.90;41.90;;;;;;5094207;28;20490;-9
2022/12/06 01:55:06;;;;;;;3.08;2.75;;;19.90;41.90;;;;;;5094737;28;20048;-9
2022/12/06 01:57:33;;;;;;;3.10;2.78;;;19.90;41.90;;;;;;5094107;28;20105;-9
2022/12/06 01:59:59;;;;;;;2.80;2.40;;;19.90;41.90;;;;;;5094033;28;20052;-9
2022/12/06 02:02:25;;;;;;;3.90;2.90;;;19.90;41.90;;;;;;5094038;28;20048;-9
2022/12/06 02:04:51;;;;;;;4.10;3.20;;;20.00;42.00;;;;;;5094375;28;20055;-9
2022/12/06 02:07:19;;;;;;;3.20;2.72;;;19.90;41.90;;;;;;5093757;28;20056;-9
2022/12/06 02:09:46;;;;;;;3.13;2.80;;;19.90;41.90;;;;;;5093853;28;20062;-9
2022/12/06 02:12:13;;;;;;;4.78;3.10;;;19.90;41.90;;;;;;5093787;28;20099;-9
2022/12/06 02:14:41;;;;;;;3.92;2.92;;;19.90;41.90;;;;;;5093984;28;20082;-9
2022/12/06 02:17:16;;;;;;;3.22;2.92;;;19.90;41.90;;;;;;5093808;28;20139;-9
2022/12/06 02:19:57;;;;;;;3.00;2.50;;;19.90;41.90;;;;;;5093700;28;20048;-9
2022/12/06 02:22:30;;;;;;;3.13;2.60;;;19.90;41.90;;;;;;5093654;28;20098;-9
2022/12/06 02:25:21;;;;;;;3.33;2.80;;;19.90;41.90;;;;;;5093740;28;20052;-9
2022/12/06 02:28:32;;;;;;;2.83;2.42;;;19.90;42.00;;;;;;5093574;28;20054;-9
2022/12/06 02:31:18;;;;;;;2.83;2.50;;;19.90;41.90;;;;;;5054736;28;20048;-9
2022/12/06 02:34:04;;;;;;;3.33;2.60;;;19.90;41.90;;;;;;5093732;28;20044;-9
2022/12/06 02:36:56;;;;;;;4.25;2.75;;;19.90;41.90;;;;;;5093640;28;20050;-9
2022/12/06 02:39:30;;;;;;;3.00;2.70;;;19.90;41.90;;;;;;5093398;28;20048;-9
2022/12/06 02:42:05;;;;;;;3.70;2.65;;;19.90;41.90;;;;;;5093258;28;20043;-9
2022/12/06 02:44:37;;;;;;;3.67;2.70;;;19.90;41.90;;;;;;5093912;28;20079;-9
2022/12/06 02:47:06;;;;;;;3.03;2.65;;;19.90;41.90;;;;;;5093517;28;20176;-9
2022/12/06 02:49:34;;;;;;;2.97;2.63;;;20.00;42.00;;;;;;5093333;28;20056;-9
2022/12/06 02:52:00;;;;;;;3.83;2.85;;;19.90;41.90;;;;;;5093399;28;20508;-9
2022/12/06 02:54:27;;;;;;;2.90;2.47;;;19.90;41.90;;;;;;5093446;28;20108;-9
2022/12/06 02:56:53;;;;;;;3.75;2.85;;;19.90;41.90;;;;;;5093327;28;20052;-9
2022/12/06 02:59:19;;;;;;;3.05;2.40;;;19.90;41.90;;;;;;5093458;28;20076;-9
2022/12/06 03:01:54;;;;;;;3.00;2.47;;;20.00;42.00;;;;;;5093482;28;20504;-9
2022/12/06 03:04:48;;;;;;;2.97;2.53;;;19.90;42.40;;;;;;5093551;28;20051;-9
2022/12/06 03:07:19;;;;;;;3.67;2.70;;;19.90;41.90;;;;;;5093187;28;20048;-9
2022/12/06 03:10:12;;;;;;;2.83;2.53;;;19.90;41.90;;;;;;5093062;28;20055;-9
2022/12/06 03:13:12;;;;;;;3.08;2.63;;;19.90;41.90;;;;;;5075349;28;20485;-9
2022/12/06 03:15:47;;;;;;;3.85;2.97;;;19.90;41.90;;;;;;5093114;28;20503;-9
2022/12/06 03:18:41;;;;;;;3.75;2.78;;;19.90;41.90;;;;;;5092905;28;20055;-9
2022/12/06 03:21:24;;;;;;;2.80;2.33;;;19.90;41.90;;;;;;5093000;28;20093;-9
2022/12/06 03:23:50;;;;;;;3.03;2.60;;;19.90;41.90;;;;;;5092884;28;20449;-9
2022/12/06 03:26:21;;;;;;;2.80;2.45;;;19.90;41.90;;;;;;5093135;28;20142;-9
2022/12/06 03:28:50;;;;;;;3.33;2.85;;;19.90;41.90;;;;;;5093032;28;20071;-9
2022/12/06 03:31:16;;;;;;;3.00;2.70;;;19.90;41.90;;;;;;5092871;28;20052;-9
2022/12/06 03:33:48;;;;;;;2.58;2.38;;;19.90;41.90;;;;;;5092869;28;20052;-9
2022/12/06 03:36:16;;;;;;;2.58;2.30;;;19.90;41.90;;;;;;5092754;28;20255;-9
2022/12/06 03:38:52;;;;;;;3.30;2.70;;;19.90;41.90;;;;;;5092810;28;20097;-9
2022/12/06 03:41:21;;;;;;;2.67;2.42;;;20.00;42.00;;;;;;5093109;28;20139;-9
2022/12/06 03:43:47;;;;;;;3.53;3.22;;;19.90;41.90;;;;;;5092668;28;20105;-9
2022/12/06 03:46:34;;;;;;;2.97;2.40;;;19.90;41.90;;;;;;5092569;28;20059;-10
2022/12/06 03:49:13;;;;;;;2.92;2.67;;;20.00;41.90;;;;;;5092471;28;20051;-9
2022/12/06 03:51:40;;;;;;;2.78;2.30;;;19.90;41.90;;;;;;5092644;28;20044;-9
2022/12/06 03:54:07;;;;;;;3.30;2.72;;;19.90;41.90;;;;;;5094883;28;20079;-9
2022/12/06 03:56:35;;;;;;;3.28;2.70;;;20.00;42.00;;;;;;5096144;28;20063;-9
2022/12/06 03:59:09;;;;;;;3.05;2.78;;;19.90;41.90;;;;;;5095948;28;20055;-9
2022/12/06 04:01:35;;;;;;;2.60;2.38;;;19.90;41.90;;;;;;5096293;28;20056;-9
2022/12/06 04:04:01;;;;;;;3.40;2.78;;;19.90;42.30;;;;;;5096276;28;20143;-9
2022/12/06 04:06:27;;;;;;;2.50;2.30;;;19.90;41.90;;;;;;5096078;28;20131;-9
2022/12/06 04:09:50;;;;;;;3.05;2.55;;;19.90;41.90;;;;;;5096223;28;20101;-9
2022/12/06 04:11:39;;;;;;;2.67;2.47;;;19.90;41.90;;;;;;5096075;28;20060;-9
2022/12/06 04:14:04;;;;;;;3.40;2.92;;;19.90;41.90;;;;;;5095822;28;20063;-9
2022/12/06 04:19:15;;;;;;;3.13;2.47;;;19.90;41.90;;;;;;5095633;28;20048;-9
2022/12/06 04:24:24;;;;;;;2.92;2.20;;;20.00;41.90;;;;;;5096037;28;20044;-9
2022/12/06 04:26:50;;;;;;;2.78;2.30;;;19.90;41.90;;;;;;5095915;28;20105;-9
2022/12/06 04:40:14;;;;;;;3.20;2.67;;;19.90;41.90;;;;;;5095371;28;20127;-9
2022/12/06 04:45:25;;;;;;;3.40;2.80;;;20.00;42.00;;;;;;5095486;28;20506;-9
2022/12/06 04:47:50;;;;;;;2.40;2.20;;;19.90;41.90;;;;;;5095270;28;20055;-9
2022/12/06 04:50:17;;;;;;;2.78;2.38;;;19.90;41.90;;;;;;5095328;28;20048;-9
2022/12/06 04:52:44;;;;;;;2.60;2.40;;;19.90;41.90;;;;;;5095256;28;20148;-9
2022/12/06 04:55:10;;;;;;;2.85;2.55;;;19.90;41.90;;;;;;5095178;28;20134;-9
2022/12/06 04:57:35;;;;;;;3.15;2.55;;;20.00;42.00;;;;;;5095195;28;20493;-10
2022/12/06 05:00:01;;;;;;;3.10;2.42;;;19.90;41.90;;;;;;5095253;28;20142;-9
2022/12/06 05:02:27;;;;;;;2.80;2.50;;;19.90;41.90;;;;;;5094970;28;20071;-9
2022/12/06 05:04:52;;;;;;;3.60;2.60;;;19.90;41.90;;;;;;5094518;28;20052;-9
2022/12/06 05:07:18;;;;;;;2.60;2.20;;;19.90;41.90;;;;;;5095231;28;20056;-9
2022/12/06 05:09:43;;;;;;;2.97;2.65;;;20.00;41.90;;;;;;5094729;28;20051;-9
2022/12/06 05:12:09;;;;;;;2.40;2.20;;;20.00;42.00;;;;;;5094885;28;20055;-9
2022/12/06 05:14:35;;;;;;;2.60;2.40;;;19.90;41.90;;;;;;5094945;28;20048;-9
2022/12/06 05:17:00;;;;;;;2.40;2.20;;;20.00;41.90;;;;;;5095142;28;20059;-9
2022/12/06 05:19:26;;;;;;;3.03;2.42;;;20.00;41.90;;;;;;5094738;28;20083;-9
2022/12/06 05:21:52;;;;;;;2.63;2.42;;;20.00;41.90;;;;;;5094746;28;20048;-9
2022/12/06 05:24:17;;;;;;;3.03;2.45;;;19.90;41.90;;;;;;5094841;28;20101;-9
2022/12/06 05:26:43;;;;;;;2.60;2.20;;;20.00;41.90;;;;;;5094657;28;20048;-9
2022/12/06 05:29:09;;;;;;;2.42;2.20;;;20.00;41.90;;;;;;5094798;28;20052;-9
2022/12/06 05:31:34;;;;;;;3.22;2.60;;;19.90;41.80;;;;;;5094595;28;20077;-9
2022/12/06 05:34:00;;;;;;;2.72;2.35;;;20.00;41.90;;;;;;5094664;28;20067;-9
2022/12/06 05:36:27;;;;;;;2.60;2.28;;;20.00;41.90;;;;;;5094813;28;20079;-9
2022/12/06 05:38:53;;;;;;;3.00;2.70;;;20.00;41.90;;;;;;5094678;28;20095;-9
2022/12/06 05:41:20;;;;;;;2.90;2.35;;;20.00;41.90;;;;;;5094451;28;20048;-9
2022/12/06 05:43:46;;;;;;;2.92;2.60;;;19.90;41.90;;;;;;5094388;28;20052;-9
2022/12/06 05:46:12;;;;;;;2.78;2.53;;;19.90;41.90;;;;;;5094541;28;20044;-9
2022/12/06 05:48:38;;;;;;;2.80;2.45;;;19.90;41.90;;;;;;5094478;28;20561;-10
2022/12/06 05:51:04;;;;;;;3.55;2.42;;;19.90;41.90;;;;;;5094378;28;20074;-9
2022/12/06 05:53:29;;;;;;;2.35;2.15;;;19.90;41.90;;;;;;5094318;28;20052;-9
2022/12/06 05:55:56;;;;;;;3.05;2.67;;;19.90;41.90;;;;;;5094596;28;20048;-9
2022/12/06 05:58:21;;;;;;;3.03;2.55;;;19.90;41.90;;;;;;5094808;28;20876;-9
2022/12/06 06:00:48;;;;;;;2.67;2.45;;;19.90;41.90;;;;;;5094792;28;20055;-9
2022/12/06 06:03:16;;;;;;;2.47;2.28;;;20.00;42.00;;;;;;5094029;28;20056;-9
2022/12/06 06:05:49;;;;;;;2.47;2.28;;;19.90;41.90;;;;;;5094135;28;20052;-9
2022/12/06 06:08:16;;;;;;;2.70;2.20;;;19.90;41.90;;;;;;5094465;28;20052;-9
2022/12/06 06:10:41;;;;;;;3.15;2.70;;;19.90;41.90;;;;;;5093976;28;20056;-9
2022/12/06 06:13:07;;;;;;;2.63;2.42;;;19.90;41.90;;;;;;5093938;28;20048;-9
2022/12/06 06:15:33;;;;;;;2.35;2.13;;;19.90;42.00;;;;;;5093151;28;20056;-9
2022/12/06 06:17:59;;;;;;;2.60;2.33;;;19.90;41.90;;;;;;5093984;28;20052;-9
2022/12/06 06:20:25;;;;;;;2.55;2.35;;;19.90;42.00;;;;;;5094181;28;20056;-9
2022/12/06 06:22:51;;;;;;;3.08;2.53;;;19.90;42.00;;;;;;5093814;28;20044;-9
2022/12/06 06:25:17;;;;;;;2.83;2.45;;;19.90;42.00;;;;;;5093878;28;20051;-9
2022/12/06 06:27:43;;;;;;;2.80;2.45;;;20.00;42.00;;;;;;5093788;28;20144;-9
2022/12/06 06:30:11;;;;;;;2.42;2.20;;;19.90;41.90;;;;;;5093650;28;20493;-9
2022/12/06 06:32:37;;;;;;;2.90;2.35;;;19.90;42.50;;;;;;5093980;28;20067;-9
2022/12/06 06:35:04;;;;;;;2.80;2.50;;;19.90;41.90;;;;;;5093580;28;20079;-9
2022/12/06 06:37:30;;;;;;;2.70;2.28;;;19.90;42.00;;;;;;5093531;28;20489;-10
2022/12/06 06:39:56;;;;;;;3.25;2.40;;;19.90;42.50;;;;;;5093269;28;20070;-11
2022/12/06 06:42:21;;;;;;;2.67;2.28;;;19.90;42.00;;;;;;5093260;28;20056;-11
2022/12/06 06:44:47;;;;;;;2.95;2.55;;;19.90;42.00;;;;;;5093361;28;20054;-11
2022/12/06 06:47:12;;;;;;;2.50;2.30;;;19.90;42.00;;;;;;5093234;28;20051;-11
2022/12/06 06:49:38;;;;;;;2.28;2.08;;;19.90;42.00;;;;;;5093182;28;20497;-11
2022/12/06 06:52:04;;;;;;;2.58;2.38;;;19.90;42.00;;;;;;5093662;28;20067;-11
2022/12/06 06:54:30;;;;;;;2.85;2.55;;;19.80;42.50;;;;;;5093540;28;20055;-11
2022/12/06 06:56:56;;;;;;;2.42;2.22;;;19.80;42.60;;;;;;5093620;28;20087;-11
2022/12/06 06:59:22;;;;;;;2.50;2.15;;;19.90;42.10;;;;;;5093549;28;20093;-11
2022/12/06 07:01:48;;;;;;;2.55;2.35;;;19.80;42.10;;;;;;5093174;28;20958;-11
2022/12/06 07:04:14;;;;;;;3.22;2.65;;;19.80;42.10;;;;;;5093076;28;20490;-11
2022/12/06 07:06:40;;;;;;;2.45;2.08;;;19.80;42.10;;;;;;5093631;28;20048;-11
2022/12/06 07:09:06;;;;;;;2.72;2.38;;;19.80;42.00;;;;;;5093308;28;20052;-11
2022/12/06 07:11:31;;;;;;;2.33;2.13;;;19.80;42.00;;;;;;5091579;28;20051;-11
2022/12/06 07:13:57;;;;;;;2.38;2.10;;;19.80;42.00;;;;;;5092875;28;20051;-11
2022/12/06 07:16:23;;;;;;;2.67;2.33;;;19.90;42.00;;;;;;5092658;28;20512;-11
2022/12/06 07:18:49;;;;;;;2.50;2.30;;;19.80;42.00;;;;;;5092993;28;20053;-11
2022/12/06 07:21:16;;;;;;;2.47;2.28;;;19.80;42.00;;;;;;5092715;28;20048;-11
2022/12/06 07:23:42;;;;;;;2.33;2.13;;;19.90;42.00;;;;;;5092740;28;20139;-11
2022/12/06 07:26:13;;;;;;;2.88;2.45;;;19.90;42.00;;;;;;5092549;28;20083;-11
2022/12/06 07:28:41;;;;;;;2.75;2.10;;;19.90;42.00;;;;;;5092289;28;20056;-11
2022/12/06 07:31:21;;;;;;;2.45;2.25;;;19.90;41.90;;;;;;5092433;28;20573;-11
2022/12/06 07:33:50;;;;;;;2.10;1.92;;;19.90;41.90;;;;;;5092518;28;20044;-11
2022/12/06 07:36:16;;;;;;;2.30;2.10;;;19.90;41.90;;;;;;5092611;28;20044;-11
2022/12/06 07:38:45;;;;;;;3.50;2.45;;;19.90;41.90;;;;;;5092482;28;20117;-11
2022/12/06 07:46:42;;;;;;;2.00;1.80;;;19.90;41.90;;;;;;5092499;28;20052;-11
2022/12/06 07:49:09;;;;;;;2.28;2.00;;;19.90;41.90;;;;;;5092303;28;20052;-11
2022/12/06 07:51:35;;;;;;;2.80;2.33;;;19.90;41.90;;;;;;5092701;28;20520;-11
2022/12/06 07:54:01;;;;;;;3.20;2.55;;;19.90;41.90;;;;;;5092486;28;20048;-11
2022/12/06 07:56:26;;;;;;;3.50;2.30;;;19.90;42.00;;;;;;5092027;28;20052;-11
2022/12/06 07:58:52;;;;;;;2.33;2.13;;;19.90;42.00;;;;;;5091765;28;20052;-12
2022/12/06 08:01:18;;;;;;;2.45;2.13;;;19.90;42.00;;;;;;5092154;28;20404;-12
2022/12/06 08:03:44;;;;;;;2.30;2.10;;;19.90;42.00;;;;;;5091934;28;20565;-11
2022/12/06 08:06:10;;;;;;;3.05;2.22;;;19.90;42.00;;;;;;5073901;28;20147;-12
2022/12/06 08:08:36;;;;;;;2.55;2.30;;;19.90;42.00;;;;;;5090553;28;20138;-9
2022/12/06 08:11:04;;;;;;;2.30;2.10;;;19.90;41.90;;;;;;5092167;28;20051;-9
2022/12/06 08:13:30;;;;;;;2.00;1.85;;;19.90;42.00;;;;;;5092060;28;20072;-10
2022/12/06 08:15:56;;;;;;;2.53;1.95;;;19.90;41.90;;;;;;5092088;28;20611;-9
2022/12/06 08:18:21;;;;;;;2.13;1.90;;;19.90;41.90;;;;;;5092255;28;20055;-10
2022/12/06 08:20:47;;;;;;;2.67;2.30;;;19.90;41.90;;;;;;5092470;28;20140;-10
2022/12/06 08:23:13;;;;;;;2.35;2.15;;;20.00;42.50;;;;;;5091816;28;20048;-9
2022/12/06 08:25:39;;;;;;;2.28;2.08;;;20.00;42.00;;;;;;5091794;28;20105;-10
2022/12/06 08:28:04;;;;;;;2.47;2.28;;;20.00;42.00;;;;;;5091865;28;20055;-10
2022/12/06 08:30:30;;;;;;;2.10;1.90;;;20.00;41.90;;;;;;5091894;28;20417;-11
2022/12/06 08:32:56;;;;;;;2.65;2.20;;;20.00;41.90;;;;;;5091773;28;20048;-11
2022/12/06 08:35:22;;;;;;;2.00;1.80;;;20.00;41.90;;;;;;5092075;28;20056;-11
2022/12/06 08:37:47;;;;;;;2.20;2.00;;;20.00;41.90;;;;;;5091730;28;20052;-11
2022/12/06 08:40:13;;;;;;;2.28;2.05;;;20.00;41.90;;;;;;5092214;28;20058;-12
2022/12/06 08:42:40;;;;;;;2.38;2.17;;;20.00;41.90;;;;;;5093709;28;20097;-11
2022/12/06 08:45:07;;;;;;;3.45;2.30;;;19.90;41.90;;;;;;5094545;28;20471;-11
2022/12/06 08:47:32;;;;;;;2.47;2.13;;;19.90;41.90;;;;;;5092756;28;20497;-11
2022/12/06 08:49:58;;;;;;;2.47;2.28;;;19.90;41.90;;;;;;5093122;28;20080;-11
2022/12/06 08:52:24;;;;;;;2.40;2.20;;;19.90;41.90;;;;;;5095107;28;20100;-11
2022/12/06 08:54:49;;;;;;;2.17;1.98;;;19.90;41.90;;;;;;5094708;28;20059;-11
2022/12/06 08:57:15;;;;;;;2.55;2.20;;;20.00;42.00;;;;;;5094332;28;20055;-11
2022/12/06 08:59:41;;;;;;;2.38;1.80;;;20.00;41.90;;;;;;5094388;28;20097;-11
2022/12/06 09:02:10;;;;;;;2.00;1.77;;;20.00;42.00;;;;;;5094245;28;20059;-11
2022/12/06 09:04:35;;;;;;;2.53;2.08;;;20.00;41.90;;;;;;5094637;28;20056;-11
2022/12/06 09:07:01;;;;;;;2.30;2.10;;;20.00;41.90;;;;;;5092976;28;20064;-11
2022/12/06 09:09:27;;;;;;;3.00;2.00;;;20.00;41.90;;;;;;5092448;28;20071;-12
2022/12/06 09:11:53;;;;;;;2.50;2.30;;;20.00;41.80;;;;;;5093343;28;20059;-11
2022/12/06 09:14:19;;;;;;;2.38;2.17;;;20.00;41.80;;;;;;5094596;28;20090;-11
2022/12/06 09:16:44;;;;;;;2.40;1.88;;;20.00;41.80;;;;;;5093945;28;20103;-11
2022/12/06 09:19:12;;;;;;;2.30;2.10;;;20.00;41.80;;;;;;5091798;28;20044;-12
2022/12/06 09:21:41;;;;;;;2.60;2.20;;;20.00;41.80;;;;;;5092394;28;20547;-11
2022/12/06 09:24:11;;;;;;;2.30;2.10;;;20.00;41.80;;;;;;5093073;28;20052;-11
2022/12/06 09:26:37;;;;;;;2.55;2.00;;;20.00;41.80;;;;;;5094336;28;20088;-12
2022/12/06 09:29:03;;;;;;;1.63;1.52;;;20.00;41.80;;;;;;5094519;28;20083;-11
2022/12/06 09:31:29;;;;;;;2.47;2.17;;;20.00;41.80;;;;;;5094391;28;20059;-11
2022/12/06 09:33:55;;;;;;;1.85;1.70;;;20.00;41.90;;;;;;5093330;28;20520;-11
2022/12/06 09:36:26;;;;;;;3.28;2.33;;;20.00;41.90;;;;;;5094038;28;20044;-11
2022/12/06 09:38:59;;;;;;;3.08;2.25;;;20.00;41.90;;;;;;5094149;28;20501;-12
2022/12/06 09:41:39;;;;;;;3.47;1.90;;;20.00;42.00;;;;;;5094240;28;20059;-11
2022/12/06 09:44:33;;;;;;;2.65;2.38;;;20.00;42.00;;;;;;5092330;28;20524;-13
2022/12/06 09:47:36;;;;;;;6.30;2.20;;;20.00;42.00;;;;;;5092431;28;20052;-12
2022/12/06 09:50:15;;;;;;;4.28;2.10;;;20.00;42.00;;;;;;5093206;28;20378;-12
2022/12/06 09:53:00;;;;;;;2.65;1.98;;;20.00;42.00;;;;;;5093602;28;20489;-12
2022/12/06 09:55:50;;;;;;;2.22;1.85;;;20.00;42.00;;;;;;5093994;28;20060;-12
2022/12/06 09:58:32;;;;;;;4.00;1.98;;;20.00;42.50;;;;;;5093859;28;20078;-12
2022/12/06 10:01:28;;;;;;;2.60;2.13;;;20.00;42.00;;;;;;5093461;28;20405;-12
2022/12/06 10:04:28;;;;;;;2.47;2.20;;;20.00;42.00;;;;;;5093736;28;20044;-12
2022/12/06 10:07:02;;;;;;;3.42;2.10;;;20.00;42.00;;;;;;5093592;28;20489;-12
2022/12/06 10:09:44;;;;;;;2.13;1.88;;;20.00;42.00;;;;;;5093200;28;20139;-14
2022/12/06 10:12:41;;;;;;;3.35;2.15;;;19.90;42.00;;;;;;5092169;28;20390;-12
2022/12/06 10:15:21;;;;;;;3.30;1.80;;;19.90;42.00;;;;;;5093176;28;20058;-12
2022/12/06 10:17:47;;;;;;;2.63;2.10;;;19.90;42.00;;;;;;5093693;28;20047;-12
2022/12/06 10:20:13;;;;;;;3.15;2.10;;;19.90;42.00;;;;;;5093530;28;20578;-13
2022/12/06 10:22:53;;;;;;;2.80;2.03;;;19.90;42.00;;;;;;5093398;28;20086;-12
2022/12/06 10:25:38;;;;;;;6.97;2.20;;;19.90;42.00;;;;;;5092828;28;20104;-13
2022/12/06 10:28:36;;;;;;;4.07;2.17;;;19.90;42.10;;;;;;5091172;28;20048;-12
2022/12/06 10:31:34;;;;;;;7.63;2.25;;;19.90;42.80;;;;;;5031932;28;20052;-12
2022/12/06 10:34:43;;;;;;;6.60;2.78;;;20.00;42.20;;;;;;5091273;28;20465;-12
2022/12/06 10:37:12;;;;;;;6.15;2.83;;;20.00;42.20;;;;;;5092577;28;20075;-12
2022/12/06 10:39:54;;;;;;;4.80;2.20;;;20.00;42.20;;;;;;5092864;28;20412;-12
2022/12/06 10:42:25;;;;;;;4.18;2.22;;;20.00;42.20;;;;;;5091711;28;20473;-12
2022/12/06 10:44:58;;;;;;;4.13;2.10;;;20.00;42.20;;;;;;5091051;28;20044;-11
2022/12/06 10:47:40;;;;;;;3.05;2.08;;;20.00;42.20;;;;;;5093608;28;20044;-12
2022/12/06 10:50:27;;;;;;;5.70;2.22;;;20.00;42.20;;;;;;5092864;28;20130;-12
2022/12/06 10:52:59;;;;;;;3.60;2.00;;;20.00;42.10;;;;;;5093329;28;20056;-12
2022/12/06 10:55:48;;;;;;;4.95;2.00;;;20.00;42.10;;;;;;5091753;28;20052;-13
2022/12/06 10:58:43;;;;;;;4.32;1.65;;;20.00;42.10;;;;;;5092186;28;20040;-13
2022/12/06 11:01:22;;;;;;;4.05;2.17;;;20.00;42.10;;;;;;5090627;28;20158;-12
2022/12/06 11:04:10;;;;;;;4.93;2.20;;;20.00;42.10;;;;;;5073052;28;20501;-12
2022/12/06 11:06:50;;;;;;;4.40;2.15;;;20.00;42.20;;;;;;5092638;28;20052;-12
2022/12/06 11:09:43;;;;;;;4.47;2.33;;;20.00;42.20;;;;;;5073709;28;20090;-13
2022/12/06 11:12:40;;;;;;;3.28;1.90;;;20.00;42.20;;;;;;5091565;28;20448;-12
2022/12/06 11:15:20;;;;;;;4.70;2.13;;;20.00;42.20;;;;;;5092438;28;20092;-12
2022/12/06 11:17:51;;;;;;;3.63;2.13;;;20.00;42.20;;;;;;5073067;28;20051;-12
2022/12/06 11:20:25;;;;;;;7.15;2.38;;;20.00;42.20;;;;;;5092046;28;20059;-12
2022/12/06 11:23:04;;;;;;;5.28;2.00;;;20.00;42.20;;;;;;5092369;28;20067;-12
2022/12/06 11:26:05;;;;;;;3.88;2.10;;;20.00;42.20;;;;;;5092597;28;20080;-12
2022/12/06 11:28:39;;;;;;;5.80;2.45;;;20.00;42.20;;;;;;5092586;28;20051;-12
2022/12/06 11:31:23;;;;;;;4.15;2.30;;;20.00;42.20;;;;;;5092491;28;20131;-12
2022/12/06 11:33:49;;;;;;;5.07;2.53;;;20.00;42.20;;;;;;5092634;28;20040;-12
2022/12/06 11:36:15;;;;;;;5.28;2.10;;;20.00;42.70;;;;;;5092361;28;20066;-12
2022/12/06 11:38:43;;;;;;;5.22;2.10;;;20.00;42.20;;;;;;5092433;28;20493;-12
2022/12/06 11:41:17;;;;;;;9.50;2.20;;;20.00;42.20;;;;;;5091603;28;20080;-10
2022/12/06 11:43:43;;;;;;;3.72;2.05;;;20.00;42.20;;;;;;5074832;28;20047;-12
2022/12/06 11:46:10;;;;;;;3.63;1.98;;;20.00;42.20;;;;;;5092349;28;20059;-12
2022/12/06 11:48:37;;;;;;;5.38;2.30;;;19.90;42.20;;;;;;5092061;28;20063;-12
2022/12/06 11:51:03;;;;;;;4.65;2.05;;;19.90;42.30;;;;;;5091301;28;20140;-12
2022/12/06 11:53:40;;;;;;;6.47;2.33;;;19.90;42.20;;;;;;5088440;28;20552;-13
2022/12/06 11:56:25;;;;;;;5.47;2.25;;;19.90;42.30;;;;;;5089857;28;20051;-13
2022/12/06 11:59:09;;;;;;;5.22;2.00;;;19.90;42.30;;;;;;5091696;28;20134;-11
2022/12/06 12:01:45;;;;;;;5.75;2.33;;;19.90;42.30;;;;;;5092057;28;20052;-12
2022/12/06 12:04:29;;;;;;;4.18;2.20;;;19.90;42.30;;;;;;5091967;28;20055;-12
2022/12/06 12:07:04;;;;;;;8.13;2.55;;;19.90;42.40;;;;;;5092110;28;20059;-12
2022/12/06 12:09:35;;;;;;;6.40;1.90;;;19.90;42.40;;;;;;5092551;28;20044;-12
2022/12/06 12:12:06;;;;;;;6.93;2.47;;;19.90;42.40;;;;;;5092176;28;20074;-12
2022/12/06 12:14:39;;;;;;;2.37;1.87;;;19.90;42.30;;;;;;5093179;28;20052;-12
2022/12/06 12:17:24;;;;;;;6.20;2.80;;;19.90;42.30;;;;;;5095460;28;20040;-12
2022/12/06 12:20:04;;;;;;;4.40;2.10;;;20.00;42.30;;;;;;5095483;28;20085;-12
2022/12/06 12:22:36;;;;;;;4.57;2.00;;;19.90;42.30;;;;;;5095449;28;20048;-11
2022/12/06 12:25:21;;;;;;;5.63;2.30;;;19.90;42.30;;;;;;5095378;28;20109;-12
2022/12/06 12:27:49;;;;;;;3.60;2.10;;;20.00;42.40;;;;;;5077363;28;20060;-12
2022/12/06 12:30:23;;;;;;;3.10;1.98;;;20.00;42.30;;;;;;5095376;28;20055;-13
2022/12/06 12:33:04;;;;;;;3.67;1.90;;;20.00;42.30;;;;;;5095313;28;20048;-12
2022/12/06 12:35:31;;;;;;;4.47;1.98;;;20.00;42.30;;;;;;5095290;28;20412;-12
2022/12/06 12:38:03;;;;;;;3.92;2.15;;;20.00;42.20;;;;;;5060293;28;20087;-11
2022/12/06 12:40:39;;;;;;;4.20;2.13;;;20.00;42.20;;;;;;5095496;28;20052;-12
2022/12/06 12:43:22;;;;;;;3.30;2.20;;;20.00;42.20;;;;;;5095110;28;20060;-12
2022/12/06 12:46:08;;;;;;;2.78;1.80;;;20.00;42.30;;;;;;5095820;28;20131;-12
2022/12/06 12:48:36;;;;;;;4.55;2.08;;;20.00;42.20;;;;;;5094904;28;20926;-11
2022/12/06 12:51:22;;;;;;;3.45;2.03;;;20.00;42.30;;;;;;5095235;28;20106;-12
2022/12/06 12:53:57;;;;;;;4.68;2.00;;;20.00;42.30;;;;;;5095414;28;20044;-12
2022/12/06 12:56:24;;;;;;;3.67;2.13;;;20.00;42.30;;;;;;5094968;28;20512;-12
2022/12/06 12:58:55;;;;;;;5.10;2.00;;;20.00;42.30;;;;;;5095223;28;20056;-12
2022/12/06 13:01:24;;;;;;;;;;;20.00;42.30;;;;;;5095153;28;20197;-12
2022/12/06 13:04:25;;;;;;;3.20;2.03;;;20.00;42.30;;;;;;5094619;28;19969;-12
2022/12/06 13:07:25;;;;;;;4.88;1.98;;;20.00;42.30;;;;;;5094817;28;20047;-12
2022/12/06 13:10:06;;;;;;;4.10;2.20;;;20.00;42.30;;;;;;5094093;28;20550;-12
2022/12/06 13:12:41;;;;;;;3.10;2.00;;;20.00;42.30;;;;;;5094686;28;20044;-12
2022/12/06 13:15:16;;;;;;;4.03;2.10;;;20.00;42.30;;;;;;5076802;28;20644;-12
2022/12/06 13:17:49;;;;;;;5.25;1.90;;;20.00;42.30;;;;;;5094715;28;20542;-12
2022/12/06 13:20:19;;;;;;;5.00;2.20;;;20.00;42.30;;;;;;5095160;28;20052;-12
2022/12/06 13:22:48;;;;;;;3.25;2.03;;;19.90;42.30;;;;;;5094942;28;20044;-11
2022/12/06 13:25:13;;;;;;;2.95;1.95;;;19.90;42.30;;;;;;5094208;28;20513;-12
2022/12/06 13:27:47;;;;;;;3.92;1.83;;;19.90;42.30;;;;;;5092798;28;20048;-13
2022/12/06 13:30:25;;;;;;;4.20;2.17;;;19.90;42.30;;;;;;5074341;28;20048;-11
2022/12/06 13:33:06;;;;;;;4.13;2.25;;;19.90;42.30;;;;;;5094396;28;20537;-11
2022/12/06 13:35:39;;;;;;;2.75;1.80;;;19.90;42.30;;;;;;5093073;28;20064;-12
2022/12/06 13:38:18;;;;;;;3.53;1.70;;;19.90;42.30;;;;;;5092624;28;20047;-13
2022/12/06 13:40:50;;;;;;;3.53;1.63;;;19.90;42.30;;;;;;5091885;28;20048;-12